Hlavní strana
METAR-TAF:

METAR-TAF

Letiště :

Eastman, Georgie, Spojené státy americké

zeměpisná šířka: 32-12-59N, zeměpisná délka: 083-07-43W, výška: 93 m

Aktuální stav počasí

Zpráva byla vytvořena před 33 minutami, v 10:55 UTC
Bezvětří
Teplota 17°C
Vlhkost vzduchu 100%
Tlak 1023 hPa
Viditelnost: 8.0 km
Jasno
kouřmo

METAR: KEZM 241055Z AUTO 00000KT 5SM BR CLR 17/17 A3021 RMK AO2 T01680167

Čas: 07:28 (11:28 UTC)


TAF: chybějící

Stav a předpovědi počasí z více než 4 000 letišť (zprávy METAR a TAF).

Červené a žluté tečky na mapě představují dostupné meteorologické stanice.

Když kurzor umístíte na tečku, zobrazí se název stanice.

Pak kliknutím zobrazíte stav a předpověď počasí.

Chcete-li změnit mapu, kliknutím na zelené tlačítko se znaménkem +mapu přiblížíte, kliknutím na zelené tlačítko se znaménkem – mapu oddálíte a kliknutím na zelené šipky přejdete na sousední mapy.


METAR-TAF: